Buoy 62726

sailwx.info

Track history (hours):
 
Tides and Currents Weather Stations Pressure Air Temp Water Temp Dewpoint Dewpoint Depression Visibility Wind Speed Wind Dir Waves Ship Positions

Drifting buoy 62726

Last reported at 2014-Jul-26 10:00 UTC. Time now 2014-Jul-26 13:10 UTC.
Position N 38°52' W 014°31'.

Water temperature 20.7 ° C

Date/timePositionNaut miles runAvg speedWind from/ knotsBaromVisibWave heightAir tempDewpointWater temp
2014-Jul-26 10:00N 38°52' W 014°31'0 0.1 20.7
2014-Jul-26 06:00N 38°52' W 014°31'0 0.2 20.7
2014-Jul-26 04:00N 38°52' W 014°32'0 0.0 20.7
2014-Jul-26 03:00N 38°52' W 014°32'2 0.7 20.7
2014-Jul-26 00:00N 38°50' W 014°32'0 0.0 20.8
2014-Jul-25 22:00N 38°50' W 014°32'1 0.5 20.9
2014-Jul-25 20:00N 38°49' W 014°31'0 0.0 20.9
2014-Jul-25 19:00N 38°49' W 014°31'1 0.7 21.0
2014-Jul-25 18:00N 38°50' W 014°30'0 0.2 20.9
2014-Jul-25 16:00N 38°50' W 014°30'0 0.2 21.0
2014-Jul-25 15:00N 38°50' W 014°30'0 0.0 21.0
2014-Jul-25 14:00N 38°50' W 014°30'1 0.4 20.9
2014-Jul-25 12:00N 38°50' W 014°31'0 0.0 20.8
2014-Jul-25 11:00N 38°50' W 014°31'0 0.0 20.7
2014-Jul-25 10:00N 38°50' W 014°31'1 0.2 20.6
2014-Jul-25 07:00N 38°49' W 014°31'0 0.2 20.6
2014-Jul-25 05:00N 38°49' W 014°31'0 0.4 20.6
2014-Jul-25 04:00N 38°49' W 014°31'0 0.0 20.6
2014-Jul-25 03:00N 38°49' W 014°31'1 1.3 20.6
2014-Jul-25 02:00N 38°48' W 014°30'0 0.0 20.6
2014-Jul-25 01:00N 38°48' W 014°30'0 0.0 20.6
2014-Jul-25 00:00N 38°48' W 014°30'0 0.1 20.7
2014-Jul-24 21:00N 38°48' W 014°30'2 0.8 20.7
2014-Jul-24 19:00N 38°48' W 014°27'0 0.0 20.7
2014-Jul-24 18:00N 38°48' W 014°27'1 0.9 20.8
2014-Jul-24 17:00N 38°49' W 014°28'0 0.0 20.8
2014-Jul-24 16:00N 38°49' W 014°28'0 0.0 20.8
2014-Jul-24 15:00N 38°49' W 014°28'2 0.7 20.8
2014-Jul-24 12:00N 38°48' W 014°30'0 0.0 20.6
2014-Jul-24 11:00N 38°48' W 014°30'2 1.9 20.5
2014-Jul-24 10:00N 38°47' W 014°29'0 0.0 20.5
2014-Jul-24 09:00N 38°47' W 014°29'1 0.3 20.5
2014-Jul-24 07:00N 38°46' W 014°28'0 0.0 20.5
2014-Jul-24 06:00N 38°46' W 014°28'1 0.7 20.5
2014-Jul-24 04:00N 38°47' W 014°27'0 0.0 20.5
2014-Jul-24 00:00N 38°47' W 014°27'0 0.0 20.7
2014-Jul-23 23:00N 38°47' W 014°27'0 0.2 20.7
2014-Jul-23 22:00N 38°47' W 014°27'0 0.5 20.7
2014-Jul-23 21:00N 38°47' W 014°27'0 0.0 20.8
2014-Jul-23 20:00N 38°47' W 014°27'1 0.3 20.8
2014-Jul-23 17:00N 38°46' W 014°27'0 0.0 20.8
2014-Jul-23 16:00N 38°46' W 014°27'1 0.2 20.8
2014-Jul-23 13:00N 38°47' W 014°27'1 0.8 20.9
2014-Jul-23 12:00N 38°46' W 014°27'0 0.0 20.8
2014-Jul-23 09:00N 38°46' W 014°27'0 0.2 20.7
2014-Jul-23 07:00N 38°46' W 014°26'0 0.2 20.6
2014-Jul-23 06:00N 38°46' W 014°26'1 1.2 20.6
2014-Jul-23 05:00N 38°46' W 014°28'0 0.0 20.6
2014-Jul-23 04:00N 38°46' W 014°28'0 0.0 20.7
2014-Jul-22 22:00N 38°46' W 014°28'2 0.4 20.6
2014-Jul-22 18:00N 38°45' W 014°26'0 0.0 20.9
2014-Jul-22 17:00N 38°45' W 014°26'0 0.2 21.0
2014-Jul-22 15:00N 38°45' W 014°26'0 0.2 21.0
2014-Jul-22 13:00N 38°45' W 014°25'1 0.3 20.9
2014-Jul-22 11:00N 38°45' W 014°26'1 0.8 20.6
2014-Jul-22 10:00N 38°45' W 014°27'0 0.0 20.5
2014-Jul-22 06:00N 38°45' W 014°27'0 0.3 20.6
2014-Jul-22 05:00N 38°44' W 014°27'0 0.2 20.5
2014-Jul-22 04:00N 38°44' W 014°27'1 0.8 20.5
2014-Jul-22 03:00N 38°44' W 014°27'0 0.0 20.6
2014-Jul-22 01:00N 38°44' W 014°27'1 0.7 20.7
2014-Jul-21 23:00N 38°42' W 014°28'0 0.0 20.7
2014-Jul-21 22:00N 38°42' W 014°28'0 0.4 20.7
2014-Jul-21 21:00N 38°42' W 014°28'0 0.0 20.7
2014-Jul-21 20:00N 38°42' W 014°28'0 0.2 20.8
2014-Jul-21 18:00N 38°42' W 014°27'0 0.2 21.6
2014-Jul-21 17:00N 38°42' W 014°28'0 0.0 21.9
2014-Jul-21 16:00N 38°42' W 014°28'1 0.5 22.1
2014-Jul-21 15:00N 38°42' W 014°27'1 0.6 21.9
2014-Jul-21 14:00N 38°42' W 014°28'0 0.0 21.9
2014-Jul-21 13:00N 38°42' W 014°28'2 0.8 21.5
2014-Jul-21 11:00N 38°40' W 014°29'0 0.0 21.1
2014-Jul-21 10:00N 38°40' W 014°29'0 0.0 20.7
2014-Jul-21 09:00N 38°40' W 014°29'0 0.1 20.5
2014-Jul-21 07:00N 38°40' W 014°29'1 0.4 20.4
2014-Jul-21 05:00N 38°39' W 014°29'0 0.0 20.4
2014-Jul-21 04:00N 38°39' W 014°29'1 0.2 20.5
2014-Jul-21 01:00N 38°39' W 014°29'2 0.5 20.5
2014-Jul-20 22:00N 38°38' W 014°27'1 0.6 20.4
2014-Jul-20 21:00N 38°38' W 014°28'0 0.3 20.4
2014-Jul-20 20:00N 38°38' W 014°28'1 1.0 20.4
2014-Jul-20 19:00N 38°38' W 014°29'0 0.0 20.4
2014-Jul-20 18:00N 38°38' W 014°29'0 0.0 20.4
2014-Jul-20 17:00N 38°38' W 014°29'0 0.2 20.5
2014-Jul-20 16:00N 38°38' W 014°29'0 0.0 20.5
2014-Jul-20 15:00N 38°38' W 014°29'1 0.7 20.5
2014-Jul-20 14:00N 38°37' W 014°30'2 0.8 20.5
2014-Jul-20 12:00N 38°36' W 014°29'0 0.2 20.5
2014-Jul-20 10:00N 38°35' W 014°29'2 0.4 20.4
2014-Jul-20 06:00N 38°34' W 014°30'0 0.1 20.3
2014-Jul-20 04:00N 38°34' W 014°30'0 0.0 20.3
2014-Jul-20 03:00N 38°34' W 014°30'1 0.2 20.3
2014-Jul-19 23:00N 38°33' W 014°29'0 0.4 20.4
2014-Jul-19 22:00N 38°33' W 014°29'1 0.7 20.4
2014-Jul-19 20:00N 38°33' W 014°30'0 0.4 20.5
2014-Jul-19 19:00N 38°32' W 014°30'0 0.0 20.5
2014-Jul-19 18:00N 38°32' W 014°30'2 0.8 20.5
2014-Jul-19 15:00N 38°30' W 014°29'0 0.1 20.5
2014-Jul-19 09:00N 38°31' W 014°29'1 0.2 20.2
2014-Jul-19 06:00N 38°31' W 014°30'0 0.0 20.2
2014-Jul-19 05:00N 38°31' W 014°30'0 0.3 20.2
2014-Jul-19 04:00N 38°30' W 014°30'1 1.0 20.2
2014-Jul-19 03:00N 38°29' W 014°30'0 0.0 20.3
2014-Jul-18 23:00N 38°29' W 014°30'0 0.5 20.4
2014-Jul-18 22:00N 38°30' W 014°30'0 0.1 20.4
2014-Jul-18 19:00N 38°30' W 014°30'0 0.2 20.5
2014-Jul-18 18:00N 38°30' W 014°30'1 0.7 20.5
2014-Jul-18 16:00N 38°29' W 014°32'0 0.0 20.5
2014-Jul-18 14:00N 38°29' W 014°32'1 0.4 20.4
2014-Jul-18 12:00N 38°28' W 014°32'0 0.0 20.3
2014-Jul-18 11:00N 38°28' W 014°32'0 0.1 20.3
2014-Jul-18 09:00N 38°28' W 014°32'0 0.2 20.2
2014-Jul-18 07:00N 38°28' W 014°32'0 0.4 20.2
2014-Jul-18 06:00N 38°28' W 014°33'0 0.5 20.2
2014-Jul-18 05:00N 38°27' W 014°33'0 0.1 20.3
2014-Jul-18 04:00N 38°27' W 014°33'1 0.1 20.3
2014-Jul-17 22:00N 38°27' W 014°34'0 0.3 20.5
2014-Jul-17 21:00N 38°27' W 014°34'0 0.1 20.5
2014-Jul-17 18:00N 38°27' W 014°34'1 0.6 20.7
2014-Jul-17 17:00N 38°26' W 014°34'0 0.2 20.7
2014-Jul-17 15:00N 38°26' W 014°35'0 0.0 20.6
2014-Jul-17 14:00N 38°26' W 014°35'1 0.1 20.5
2014-Jul-17 07:00N 38°26' W 014°36'0 0.2 20.0
2014-Jul-17 06:00N 38°26' W 014°36'0 0.2 20.0
2014-Jul-17 05:00N 38°26' W 014°36'0 0.1 20.0
2014-Jul-17 04:00N 38°26' W 014°36'0 0.0 20.0
2014-Jul-17 03:00N 38°26' W 014°36'0 0.2 20.1
2014-Jul-17 00:00N 38°26' W 014°37'0 0.2 20.3
2014-Jul-16 23:00N 38°26' W 014°37'1 0.6 20.3
2014-Jul-16 22:00N 38°26' W 014°38'0 0.5 20.3
2014-Jul-16 21:00N 38°25' W 014°38'0 0.0 20.3
2014-Jul-16 20:00N 38°25' W 014°38'1 0.3 20.4
2014-Jul-16 17:00N 38°25' W 014°38'0 0.5 20.4
2014-Jul-16 16:00N 38°24' W 014°38'0 0.3 20.3
2014-Jul-16 15:00N 38°24' W 014°37'0 0.2 20.2
2014-Jul-16 14:00N 38°24' W 014°37'0 0.0 20.2
2014-Jul-16 13:00N 38°24' W 014°37'0 0.0 20.1
2014-Jul-16 12:00N 38°24' W 014°37'1 0.8 20.1
2014-Jul-16 11:00N 38°25' W 014°38'0 0.0 19.9
2014-Jul-16 10:00N 38°25' W 014°38'   19.9
Track history (hours):
 
Tides and Currents Weather Stations Pressure Air Temp Water Temp Dewpoint Dewpoint Depression Visibility Wind Speed Wind Dir Waves Ship Positions

Drifting buoy 62726

Last reported at 2014-Jul-26 10:00 UTC. Time now 2014-Jul-26 13:10 UTC.
Position N 38°52' W 014°31'.

Water temperature 20.7 ° C

Date/timePositionNaut miles runAvg speedWind from/ knotsBaromVisibWave heightAir tempDewpointWater temp
2014-Jul-26 10:00N 38°52' W 014°31'0 0.1 20.7
2014-Jul-26 06:00N 38°52' W 014°31'0 0.2 20.7
2014-Jul-26 04:00N 38°52' W 014°32'0 0.0 20.7
2014-Jul-26 03:00N 38°52' W 014°32'2 0.7 20.7
2014-Jul-26 00:00N 38°50' W 014°32'0 0.0 20.8
2014-Jul-25 22:00N 38°50' W 014°32'1 0.5 20.9
2014-Jul-25 20:00N 38°49' W 014°31'0 0.0 20.9
2014-Jul-25 19:00N 38°49' W 014°31'1 0.7 21.0
2014-Jul-25 18:00N 38°50' W 014°30'0 0.2 20.9
2014-Jul-25 16:00N 38°50' W 014°30'0 0.2 21.0
2014-Jul-25 15:00N 38°50' W 014°30'0 0.0 21.0
2014-Jul-25 14:00N 38°50' W 014°30'1 0.4 20.9
2014-Jul-25 12:00N 38°50' W 014°31'0 0.0 20.8
2014-Jul-25 11:00N 38°50' W 014°31'0 0.0 20.7
2014-Jul-25 10:00N 38°50' W 014°31'1 0.2 20.6
2014-Jul-25 07:00N 38°49' W 014°31'0 0.2 20.6
2014-Jul-25 05:00N 38°49' W 014°31'0 0.4 20.6
2014-Jul-25 04:00N 38°49' W 014°31'0 0.0 20.6
2014-Jul-25 03:00N 38°49' W 014°31'1 1.3 20.6
2014-Jul-25 02:00N 38°48' W 014°30'0 0.0 20.6
2014-Jul-25 01:00N 38°48' W 014°30'0 0.0 20.6
2014-Jul-25 00:00N 38°48' W 014°30'0 0.1 20.7
2014-Jul-24 21:00N 38°48' W 014°30'2 0.8 20.7
2014-Jul-24 19:00N 38°48' W 014°27'0 0.0 20.7
2014-Jul-24 18:00N 38°48' W 014°27'1 0.9 20.8
2014-Jul-24 17:00N 38°49' W 014°28'0 0.0 20.8
2014-Jul-24 16:00N 38°49' W 014°28'0 0.0 20.8
2014-Jul-24 15:00N 38°49' W 014°28'2 0.7 20.8
2014-Jul-24 12:00N 38°48' W 014°30'0 0.0 20.6
2014-Jul-24 11:00N 38°48' W 014°30'2 1.9 20.5
2014-Jul-24 10:00N 38°47' W 014°29'0 0.0 20.5
2014-Jul-24 09:00N 38°47' W 014°29'1 0.3 20.5
2014-Jul-24 07:00N 38°46' W 014°28'0 0.0 20.5
2014-Jul-24 06:00N 38°46' W 014°28'1 0.7 20.5
2014-Jul-24 04:00N 38°47' W 014°27'0 0.0 20.5
2014-Jul-24 00:00N 38°47' W 014°27'0 0.0 20.7
2014-Jul-23 23:00N 38°47' W 014°27'0 0.2 20.7
2014-Jul-23 22:00N 38°47' W 014°27'0 0.5 20.7
2014-Jul-23 21:00N 38°47' W 014°27'0 0.0 20.8
2014-Jul-23 20:00N 38°47' W 014°27'1 0.3 20.8
2014-Jul-23 17:00N 38°46' W 014°27'0 0.0 20.8
2014-Jul-23 16:00N 38°46' W 014°27'1 0.2 20.8
2014-Jul-23 13:00N 38°47' W 014°27'1 0.8 20.9
2014-Jul-23 12:00N 38°46' W 014°27'0 0.0 20.8
2014-Jul-23 09:00N 38°46' W 014°27'0 0.2 20.7
2014-Jul-23 07:00N 38°46' W 014°26'0 0.2 20.6
2014-Jul-23 06:00N 38°46' W 014°26'1 1.2 20.6
2014-Jul-23 05:00N 38°46' W 014°28'0 0.0 20.6
2014-Jul-23 04:00N 38°46' W 014°28'0 0.0 20.7
2014-Jul-22 22:00N 38°46' W 014°28'2 0.4 20.6
2014-Jul-22 18:00N 38°45' W 014°26'0 0.0 20.9
2014-Jul-22 17:00N 38°45' W 014°26'0 0.2 21.0
2014-Jul-22 15:00N 38°45' W 014°26'0 0.2 21.0
2014-Jul-22 13:00N 38°45' W 014°25'1 0.3 20.9
2014-Jul-22 11:00N 38°45' W 014°26'1 0.8 20.6
2014-Jul-22 10:00N 38°45' W 014°27'0 0.0 20.5
2014-Jul-22 06:00N 38°45' W 014°27'0 0.3 20.6
2014-Jul-22 05:00N 38°44' W 014°27'0 0.2 20.5
2014-Jul-22 04:00N 38°44' W 014°27'1 0.8 20.5
2014-Jul-22 03:00N 38°44' W 014°27'0 0.0 20.6
2014-Jul-22 01:00N 38°44' W 014°27'1 0.7 20.7
2014-Jul-21 23:00N 38°42' W 014°28'0 0.0 20.7
2014-Jul-21 22:00N 38°42' W 014°28'0 0.4 20.7
2014-Jul-21 21:00N 38°42' W 014°28'0 0.0 20.7
2014-Jul-21 20:00N 38°42' W 014°28'0 0.2 20.8
2014-Jul-21 18:00N 38°42' W 014°27'0 0.2 21.6
2014-Jul-21 17:00N 38°42' W 014°28'0 0.0 21.9
2014-Jul-21 16:00N 38°42' W 014°28'1 0.5 22.1
2014-Jul-21 15:00N 38°42' W 014°27'1 0.6 21.9
2014-Jul-21 14:00N 38°42' W 014°28'0 0.0 21.9
2014-Jul-21 13:00N 38°42' W 014°28'2 0.8 21.5
2014-Jul-21 11:00N 38°40' W 014°29'0 0.0 21.1
2014-Jul-21 10:00N 38°40' W 014°29'0 0.0 20.7
2014-Jul-21 09:00N 38°40' W 014°29'0 0.1 20.5
2014-Jul-21 07:00N 38°40' W 014°29'1 0.4 20.4
2014-Jul-21 05:00N 38°39' W 014°29'0 0.0 20.4
2014-Jul-21 04:00N 38°39' W 014°29'1 0.2 20.5
2014-Jul-21 01:00N 38°39' W 014°29'2 0.5 20.5
2014-Jul-20 22:00N 38°38' W 014°27'1 0.6 20.4
2014-Jul-20 21:00N 38°38' W 014°28'0 0.3 20.4
2014-Jul-20 20:00N 38°38' W 014°28'1 1.0 20.4
2014-Jul-20 19:00N 38°38' W 014°29'0 0.0 20.4
2014-Jul-20 18:00N 38°38' W 014°29'0 0.0 20.4
2014-Jul-20 17:00N 38°38' W 014°29'0 0.2 20.5
2014-Jul-20 16:00N 38°38' W 014°29'0 0.0 20.5
2014-Jul-20 15:00N 38°38' W 014°29'1 0.7 20.5
2014-Jul-20 14:00N 38°37' W 014°30'2 0.8 20.5
2014-Jul-20 12:00N 38°36' W 014°29'0 0.2 20.5
2014-Jul-20 10:00N 38°35' W 014°29'2 0.4 20.4
2014-Jul-20 06:00N 38°34' W 014°30'0 0.1 20.3
2014-Jul-20 04:00N 38°34' W 014°30'0 0.0 20.3
2014-Jul-20 03:00N 38°34' W 014°30'1 0.2 20.3
2014-Jul-19 23:00N 38°33' W 014°29'0 0.4 20.4
2014-Jul-19 22:00N 38°33' W 014°29'1 0.7 20.4
2014-Jul-19 20:00N 38°33' W 014°30'0 0.4 20.5
2014-Jul-19 19:00N 38°32' W 014°30'0 0.0 20.5
2014-Jul-19 18:00N 38°32' W 014°30'2 0.8 20.5
2014-Jul-19 15:00N 38°30' W 014°29'0 0.1 20.5
2014-Jul-19 09:00N 38°31' W 014°29'1 0.2 20.2
2014-Jul-19 06:00N 38°31' W 014°30'0 0.0 20.2
2014-Jul-19 05:00N 38°31' W 014°30'0 0.3 20.2
2014-Jul-19 04:00N 38°30' W 014°30'1 1.0 20.2
2014-Jul-19 03:00N 38°29' W 014°30'0 0.0 20.3
2014-Jul-18 23:00N 38°29' W 014°30'0 0.5 20.4
2014-Jul-18 22:00N 38°30' W 014°30'0 0.1 20.4
2014-Jul-18 19:00N 38°30' W 014°30'0 0.2 20.5
2014-Jul-18 18:00N 38°30' W 014°30'1 0.7 20.5
2014-Jul-18 16:00N 38°29' W 014°32'0 0.0 20.5
2014-Jul-18 14:00N 38°29' W 014°32'1 0.4 20.4
2014-Jul-18 12:00N 38°28' W 014°32'0 0.0 20.3
2014-Jul-18 11:00N 38°28' W 014°32'0 0.1 20.3
2014-Jul-18 09:00N 38°28' W 014°32'0 0.2 20.2
2014-Jul-18 07:00N 38°28' W 014°32'0 0.4 20.2
2014-Jul-18 06:00N 38°28' W 014°33'0 0.5 20.2
2014-Jul-18 05:00N 38°27' W 014°33'0 0.1 20.3
2014-Jul-18 04:00N 38°27' W 014°33'1 0.1 20.3
2014-Jul-17 22:00N 38°27' W 014°34'0 0.3 20.5
2014-Jul-17 21:00N 38°27' W 014°34'0 0.1 20.5
2014-Jul-17 18:00N 38°27' W 014°34'1 0.6 20.7
2014-Jul-17 17:00N 38°26' W 014°34'0 0.2 20.7
2014-Jul-17 15:00N 38°26' W 014°35'0 0.0 20.6
2014-Jul-17 14:00N 38°26' W 014°35'1 0.1 20.5
2014-Jul-17 07:00N 38°26' W 014°36'0 0.2 20.0
2014-Jul-17 06:00N 38°26' W 014°36'0 0.2 20.0
2014-Jul-17 05:00N 38°26' W 014°36'0 0.1 20.0
2014-Jul-17 04:00N 38°26' W 014°36'0 0.0 20.0
2014-Jul-17 03:00N 38°26' W 014°36'0 0.2 20.1
2014-Jul-17 00:00N 38°26' W 014°37'0 0.2 20.3
2014-Jul-16 23:00N 38°26' W 014°37'1 0.6 20.3
2014-Jul-16 22:00N 38°26' W 014°38'0 0.5 20.3
2014-Jul-16 21:00N 38°25' W 014°38'0 0.0 20.3
2014-Jul-16 20:00N 38°25' W 014°38'1 0.3 20.4
2014-Jul-16 17:00N 38°25' W 014°38'0 0.5 20.4
2014-Jul-16 16:00N 38°24' W 014°38'0 0.3 20.3
2014-Jul-16 15:00N 38°24' W 014°37'0 0.2 20.2
2014-Jul-16 14:00N 38°24' W 014°37'0 0.0 20.2
2014-Jul-16 13:00N 38°24' W 014°37'0 0.0 20.1
2014-Jul-16 12:00N 38°24' W 014°37'1 0.8 20.1
2014-Jul-16 11:00N 38°25' W 014°38'0 0.0 19.9
2014-Jul-16 10:00N 38°25' W 014°38'   19.9

Dump ship's entire track history